sensor_id;sensor_type;location;lat;lon;timestamp;temperature;humidity
28905;DHT22;60848;53.884;11.446;2022-09-16T00:01:53;16.50;63.10
28905;DHT22;60848;53.884;11.446;2022-09-16T00:04:22;16.50;63.20
28905;DHT22;60848;53.884;11.446;2022-09-16T00:06:51;16.40;63.40
28905;DHT22;60848;53.884;11.446;2022-09-16T00:09:19;16.40;63.60
28905;DHT22;60848;53.884;11.446;2022-09-16T00:11:47;16.40;64.30
28905;DHT22;60848;53.884;11.446;2022-09-16T00:14:16;16.40;63.80
28905;DHT22;60848;53.884;11.446;2022-09-16T00:16:44;16.40;63.70
28905;DHT22;60848;53.884;11.446;2022-09-16T00:19:15;16.30;63.80
28905;DHT22;60848;53.884;11.446;2022-09-16T00:21:46;16.30;64.00
28905;DHT22;60848;53.884;11.446;2022-09-16T00:24:15;16.20;64.20
28905;DHT22;60848;53.884;11.446;2022-09-16T00:26:45;16.20;64.40
28905;DHT22;60848;53.884;11.446;2022-09-16T00:29:14;16.10;64.40
28905;DHT22;60848;53.884;11.446;2022-09-16T00:31:42;16.20;64.50
28905;DHT22;60848;53.884;11.446;2022-09-16T00:34:10;16.20;64.40
28905;DHT22;60848;53.884;11.446;2022-09-16T00:36:39;16.20;64.30
28905;DHT22;60848;53.884;11.446;2022-09-16T00:39:08;16.20;64.20
28905;DHT22;60848;53.884;11.446;2022-09-16T00:41:37;16.20;64.20
28905;DHT22;60848;53.884;11.446;2022-09-16T00:44:06;16.20;64.20
28905;DHT22;60848;53.884;11.446;2022-09-16T00:46:54;16.20;64.20
28905;DHT22;60848;53.884;11.446;2022-09-16T00:49:25;16.30;63.90
28905;DHT22;60848;53.884;11.446;2022-09-16T00:52:00;16.30;63.80
28905;DHT22;60848;53.884;11.446;2022-09-16T00:54:32;16.20;63.90
28905;DHT22;60848;53.884;11.446;2022-09-16T00:57:04;16.20;63.80
28905;DHT22;60848;53.884;11.446;2022-09-16T00:59:36;16.20;63.80
28905;DHT22;60848;53.884;11.446;2022-09-16T01:02:08;16.20;63.90
28905;DHT22;60848;53.884;11.446;2022-09-16T01:04:43;16.20;63.90
28905;DHT22;60848;53.884;11.446;2022-09-16T01:07:15;16.20;64.00
28905;DHT22;60848;53.884;11.446;2022-09-16T01:09:45;16.10;64.10
28905;DHT22;60848;53.884;11.446;2022-09-16T01:12:14;16.00;64.50
28905;DHT22;60848;53.884;11.446;2022-09-16T01:14:42;16.00;64.80
28905;DHT22;60848;53.884;11.446;2022-09-16T01:17:35;16.00;64.90
28905;DHT22;60848;53.884;11.446;2022-09-16T01:23:32;16.00;65.10
28905;DHT22;60848;53.884;11.446;2022-09-16T01:26:19;16.00;65.00
28905;DHT22;60848;53.884;11.446;2022-09-16T01:29:12;16.00;65.00
28905;DHT22;60848;53.884;11.446;2022-09-16T01:31:54;16.00;65.10
28905;DHT22;60848;53.884;11.446;2022-09-16T01:34:30;16.00;65.10
28905;DHT22;60848;53.884;11.446;2022-09-16T01:37:07;16.10;65.20
28905;DHT22;60848;53.884;11.446;2022-09-16T01:39:46;16.00;65.20
28905;DHT22;60848;53.884;11.446;2022-09-16T01:42:24;16.10;65.20
28905;DHT22;60848;53.884;11.446;2022-09-16T01:45:04;16.10;65.20
28905;DHT22;60848;53.884;11.446;2022-09-16T01:47:42;16.10;65.10
28905;DHT22;60848;53.884;11.446;2022-09-16T01:50:17;16.20;65.60
28905;DHT22;60848;53.884;11.446;2022-09-16T01:52:56;16.20;64.70
28905;DHT22;60848;53.884;11.446;2022-09-16T01:55:29;16.10;64.70
28905;DHT22;60848;53.884;11.446;2022-09-16T01:58:05;16.10;64.70
28905;DHT22;60848;53.884;11.446;2022-09-16T02:00:39;16.20;64.80
28905;DHT22;60848;53.884;11.446;2022-09-16T02:03:12;16.10;64.70
28905;DHT22;60848;53.884;11.446;2022-09-16T02:05:45;16.10;64.90
28905;DHT22;60848;53.884;11.446;2022-09-16T02:08:21;16.10;64.90
28905;DHT22;60848;53.884;11.446;2022-09-16T02:10:54;16.10;65.00
28905;DHT22;60848;53.884;11.446;2022-09-16T02:13:28;16.10;65.00
28905;DHT22;60848;53.884;11.446;2022-09-16T02:16:00;16.00;65.00
28905;DHT22;60848;53.884;11.446;2022-09-16T02:18:34;16.00;65.10
28905;DHT22;60848;53.884;11.446;2022-09-16T02:21:06;16.00;65.20
28905;DHT22;60848;53.884;11.446;2022-09-16T02:23:41;15.90;65.30
28905;DHT22;60848;53.884;11.446;2022-09-16T02:26:15;15.90;65.40
28905;DHT22;60848;53.884;11.446;2022-09-16T02:28:47;15.90;65.40
28905;DHT22;60848;53.884;11.446;2022-09-16T02:31:21;15.90;65.40
28905;DHT22;60848;53.884;11.446;2022-09-16T02:33:53;15.90;65.50
28905;DHT22;60848;53.884;11.446;2022-09-16T02:36:25;15.80;65.80
28905;DHT22;60848;53.884;11.446;2022-09-16T02:38:58;15.90;66.00
28905;DHT22;60848;53.884;11.446;2022-09-16T02:41:27;15.90;65.80
28905;DHT22;60848;53.884;11.446;2022-09-16T02:43:58;15.90;65.70
28905;DHT22;60848;53.884;11.446;2022-09-16T02:46:31;15.90;65.70
28905;DHT22;60848;53.884;11.446;2022-09-16T02:49:11;15.80;65.80
28905;DHT22;60848;53.884;11.446;2022-09-16T02:51:51;15.90;65.90
28905;DHT22;60848;53.884;11.446;2022-09-16T02:54:24;15.80;65.80
28905;DHT22;60848;53.884;11.446;2022-09-16T02:56:57;15.80;65.80
28905;DHT22;60848;53.884;11.446;2022-09-16T02:59:26;15.80;65.90
28905;DHT22;60848;53.884;11.446;2022-09-16T03:01:54;15.80;65.90
28905;DHT22;60848;53.884;11.446;2022-09-16T03:04:24;15.80;65.70
28905;DHT22;60848;53.884;11.446;2022-09-16T03:06:52;15.80;65.80
28905;DHT22;60848;53.884;11.446;2022-09-16T03:09:21;15.70;65.90
28905;DHT22;60848;53.884;11.446;2022-09-16T03:12:06;15.70;66.00
28905;DHT22;60848;53.884;11.446;2022-09-16T03:15:05;15.70;66.00
28905;DHT22;60848;53.884;11.446;2022-09-16T03:17:58;15.80;66.00
28905;DHT22;60848;53.884;11.446;2022-09-16T03:20:39;15.70;66.30
28905;DHT22;60848;53.884;11.446;2022-09-16T03:23:20;15.70;66.20
28905;DHT22;60848;53.884;11.446;2022-09-16T03:25:56;15.70;66.20
28905;DHT22;60848;53.884;11.446;2022-09-16T03:28:30;15.60;66.40
28905;DHT22;60848;53.884;11.446;2022-09-16T03:31:05;15.60;67.40
28905;DHT22;60848;53.884;11.446;2022-09-16T03:33:38;15.60;66.80
28905;DHT22;60848;53.884;11.446;2022-09-16T03:36:13;15.60;66.90
28905;DHT22;60848;53.884;11.446;2022-09-16T03:38:43;15.60;67.00
28905;DHT22;60848;53.884;11.446;2022-09-16T03:41:13;15.60;67.00
28905;DHT22;60848;53.884;11.446;2022-09-16T03:43:51;15.50;67.10
28905;DHT22;60848;53.884;11.446;2022-09-16T03:46:20;15.50;67.20
28905;DHT22;60848;53.884;11.446;2022-09-16T03:48:48;15.50;67.20
28905;DHT22;60848;53.884;11.446;2022-09-16T03:51:20;15.50;67.00
28905;DHT22;60848;53.884;11.446;2022-09-16T03:53:48;15.50;67.10
28905;DHT22;60848;53.884;11.446;2022-09-16T03:56:17;15.50;67.20
28905;DHT22;60848;53.884;11.446;2022-09-16T03:58:47;15.50;67.10
28905;DHT22;60848;53.884;11.446;2022-09-16T04:01:15;15.50;67.00
28905;DHT22;60848;53.884;11.446;2022-09-16T04:03:44;15.40;67.30
28905;DHT22;60848;53.884;11.446;2022-09-16T04:06:12;15.50;67.30
28905;DHT22;60848;53.884;11.446;2022-09-16T04:08:42;15.50;67.30
28905;DHT22;60848;53.884;11.446;2022-09-16T04:11:13;15.40;67.30
28905;DHT22;60848;53.884;11.446;2022-09-16T04:13:41;15.40;67.40
28905;DHT22;60848;53.884;11.446;2022-09-16T04:16:10;15.40;67.50
28905;DHT22;60848;53.884;11.446;2022-09-16T04:18:38;15.40;67.30
28905;DHT22;60848;53.884;11.446;2022-09-16T04:21:09;15.30;67.60
28905;DHT22;60848;53.884;11.446;2022-09-16T04:23:37;15.20;67.80
28905;DHT22;60848;53.884;11.446;2022-09-16T04:26:07;15.20;68.00
28905;DHT22;60848;53.884;11.446;2022-09-16T04:28:35;15.20;68.00
28905;DHT22;60848;53.884;11.446;2022-09-16T04:31:05;15.20;68.10
28905;DHT22;60848;53.884;11.446;2022-09-16T04:33:35;15.10;68.30
28905;DHT22;60848;53.884;11.446;2022-09-16T04:36:07;15.10;68.50
28905;DHT22;60848;53.884;11.446;2022-09-16T04:38:36;15.00;68.60
28905;DHT22;60848;53.884;11.446;2022-09-16T04:41:07;15.00;68.80
28905;DHT22;60848;53.884;11.446;2022-09-16T04:43:36;15.00;69.50
28905;DHT22;60848;53.884;11.446;2022-09-16T04:46:07;15.00;69.10
28905;DHT22;60848;53.884;11.446;2022-09-16T04:48:37;15.00;68.70
28905;DHT22;60848;53.884;11.446;2022-09-16T04:51:10;15.10;68.60
28905;DHT22;60848;53.884;11.446;2022-09-16T04:53:40;15.10;68.60
28905;DHT22;60848;53.884;11.446;2022-09-16T04:56:13;15.10;68.90
28905;DHT22;60848;53.884;11.446;2022-09-16T04:58:43;15.10;68.40
28905;DHT22;60848;53.884;11.446;2022-09-16T05:01:12;15.00;68.80
28905;DHT22;60848;53.884;11.446;2022-09-16T05:03:45;15.10;68.80
28905;DHT22;60848;53.884;11.446;2022-09-16T05:06:16;15.00;68.90
28905;DHT22;60848;53.884;11.446;2022-09-16T05:08:47;15.10;68.90
28905;DHT22;60848;53.884;11.446;2022-09-16T05:11:18;15.10;69.00
28905;DHT22;60848;53.884;11.446;2022-09-16T05:13:47;15.20;68.80
28905;DHT22;60848;53.884;11.446;2022-09-16T05:16:17;15.30;68.60
28905;DHT22;60848;53.884;11.446;2022-09-16T05:18:47;15.30;68.50
28905;DHT22;60848;53.884;11.446;2022-09-16T05:21:18;15.30;68.80
28905;DHT22;60848;53.884;11.446;2022-09-16T05:23:49;15.40;68.60
28905;DHT22;60848;53.884;11.446;2022-09-16T05:26:21;15.60;68.00
28905;DHT22;60848;53.884;11.446;2022-09-16T05:28:50;15.60;67.40
28905;DHT22;60848;53.884;11.446;2022-09-16T05:31:20;15.60;67.40
28905;DHT22;60848;53.884;11.446;2022-09-16T05:33:53;15.70;67.00
28905;DHT22;60848;53.884;11.446;2022-09-16T05:36:25;15.70;67.50
28905;DHT22;60848;53.884;11.446;2022-09-16T05:38:55;16.00;67.10
28905;DHT22;60848;53.884;11.446;2022-09-16T05:41:47;16.40;66.20
28905;DHT22;60848;53.884;11.446;2022-09-16T05:44:16;16.70;65.20
28905;DHT22;60848;53.884;11.446;2022-09-16T05:46:44;17.00;64.30
28905;DHT22;60848;53.884;11.446;2022-09-16T05:49:12;17.20;63.40
28905;DHT22;60848;53.884;11.446;2022-09-16T05:51:50;17.40;62.60
28905;DHT22;60848;53.884;11.446;2022-09-16T05:54:19;17.50;61.90
28905;DHT22;60848;53.884;11.446;2022-09-16T05:56:51;17.60;61.40
28905;DHT22;60848;53.884;11.446;2022-09-16T05:59:19;17.80;61.00
28905;DHT22;60848;53.884;11.446;2022-09-16T06:01:49;18.00;60.20
28905;DHT22;60848;53.884;11.446;2022-09-16T06:04:17;18.10;59.40
28905;DHT22;60848;53.884;11.446;2022-09-16T06:06:46;18.30;59.00
28905;DHT22;60848;53.884;11.446;2022-09-16T06:09:15;18.60;58.30
28905;DHT22;60848;53.884;11.446;2022-09-16T06:11:45;17.90;60.50
28905;DHT22;60848;53.884;11.446;2022-09-16T06:14:18;17.50;62.20
28905;DHT22;60848;53.884;11.446;2022-09-16T06:16:49;17.50;62.80
28905;DHT22;60848;53.884;11.446;2022-09-16T06:19:18;17.50;62.30
28905;DHT22;60848;53.884;11.446;2022-09-16T06:21:46;17.80;61.50
28905;DHT22;60848;53.884;11.446;2022-09-16T06:24:16;17.90;60.90
28905;DHT22;60848;53.884;11.446;2022-09-16T06:26:46;18.00;60.40
28905;DHT22;60848;53.884;11.446;2022-09-16T06:29:17;18.90;57.50
28905;DHT22;60848;53.884;11.446;2022-09-16T06:31:46;19.50;56.70
28905;DHT22;60848;53.884;11.446;2022-09-16T06:34:16;19.90;55.80
28905;DHT22;60848;53.884;11.446;2022-09-16T06:36:46;20.20;54.40
28905;DHT22;60848;53.884;11.446;2022-09-16T06:39:15;20.10;54.00
28905;DHT22;60848;53.884;11.446;2022-09-16T06:41:47;20.30;54.10
28905;DHT22;60848;53.884;11.446;2022-09-16T06:44:16;20.50;54.00
28905;DHT22;60848;53.884;11.446;2022-09-16T06:46:45;20.70;53.10
28905;DHT22;60848;53.884;11.446;2022-09-16T06:49:13;20.70;52.10
28905;DHT22;60848;53.884;11.446;2022-09-16T06:51:41;20.60;52.60
28905;DHT22;60848;53.884;11.446;2022-09-16T06:54:09;20.70;52.40
28905;DHT22;60848;53.884;11.446;2022-09-16T06:56:39;20.90;52.10
28905;DHT22;60848;53.884;11.446;2022-09-16T06:59:09;21.10;51.70
28905;DHT22;60848;53.884;11.446;2022-09-16T07:01:41;21.30;50.80
28905;DHT22;60848;53.884;11.446;2022-09-16T07:04:10;21.50;50.00
28905;DHT22;60848;53.884;11.446;2022-09-16T07:06:39;21.70;49.20
28905;DHT22;60848;53.884;11.446;2022-09-16T07:09:27;21.80;48.40
28905;DHT22;60848;53.884;11.446;2022-09-16T07:11:56;22.00;48.00
28905;DHT22;60848;53.884;11.446;2022-09-16T07:14:25;22.20;47.30
28905;DHT22;60848;53.884;11.446;2022-09-16T07:16:57;22.40;46.90
28905;DHT22;60848;53.884;11.446;2022-09-16T07:19:26;22.60;46.40
28905;DHT22;60848;53.884;11.446;2022-09-16T07:21:54;22.90;46.10
28905;DHT22;60848;53.884;11.446;2022-09-16T07:24:23;22.90;45.70
28905;DHT22;60848;53.884;11.446;2022-09-16T07:26:53;23.20;45.40
28905;DHT22;60848;53.884;11.446;2022-09-16T07:29:22;23.40;44.90
28905;DHT22;60848;53.884;11.446;2022-09-16T07:31:50;23.40;44.00
28905;DHT22;60848;53.884;11.446;2022-09-16T07:34:20;23.40;44.20
28905;DHT22;60848;53.884;11.446;2022-09-16T07:36:49;23.70;44.00
28905;DHT22;60848;53.884;11.446;2022-09-16T07:39:18;23.80;43.60
28905;DHT22;60848;53.884;11.446;2022-09-16T07:41:47;23.80;43.30
28905;DHT22;60848;53.884;11.446;2022-09-16T07:44:18;23.90;43.10
28905;DHT22;60848;53.884;11.446;2022-09-16T07:46:49;24.30;42.90
28905;DHT22;60848;53.884;11.446;2022-09-16T07:49:19;24.40;42.20
28905;DHT22;60848;53.884;11.446;2022-09-16T07:51:47;24.50;41.80
28905;DHT22;60848;53.884;11.446;2022-09-16T07:54:16;24.80;41.50
28905;DHT22;60848;53.884;11.446;2022-09-16T07:56:45;24.70;41.40
28905;DHT22;60848;53.884;11.446;2022-09-16T07:59:16;24.90;41.40
28905;DHT22;60848;53.884;11.446;2022-09-16T08:01:46;24.80;41.10
28905;DHT22;60848;53.884;11.446;2022-09-16T08:04:16;24.10;43.20
28905;DHT22;60848;53.884;11.446;2022-09-16T08:06:48;23.80;43.90
28905;DHT22;60848;53.884;11.446;2022-09-16T08:09:16;23.80;43.60
28905;DHT22;60848;53.884;11.446;2022-09-16T08:12:07;23.50;44.10
28905;DHT22;60848;53.884;11.446;2022-09-16T08:14:37;23.50;44.80
28905;DHT22;60848;53.884;11.446;2022-09-16T08:17:05;23.70;44.00
28905;DHT22;60848;53.884;11.446;2022-09-16T08:19:34;24.10;44.20
28905;DHT22;60848;53.884;11.446;2022-09-16T08:22:06;24.40;43.00
28905;DHT22;60848;53.884;11.446;2022-09-16T08:24:34;24.70;42.20
28905;DHT22;60848;53.884;11.446;2022-09-16T08:27:02;24.70;41.60
28905;DHT22;60848;53.884;11.446;2022-09-16T08:29:31;24.80;41.30
28905;DHT22;60848;53.884;11.446;2022-09-16T08:32:02;24.50;41.50
28905;DHT22;60848;53.884;11.446;2022-09-16T08:34:31;24.40;41.80
28905;DHT22;60848;53.884;11.446;2022-09-16T08:36:59;24.40;42.30
28905;DHT22;60848;53.884;11.446;2022-09-16T08:39:29;24.40;41.70
28905;DHT22;60848;53.884;11.446;2022-09-16T08:42:24;24.30;42.40
28905;DHT22;60848;53.884;11.446;2022-09-16T08:45:02;24.10;42.30
28905;DHT22;60848;53.884;11.446;2022-09-16T08:47:44;24.00;42.60
28905;DHT22;60848;53.884;11.446;2022-09-16T08:50:18;24.00;42.30
28905;DHT22;60848;53.884;11.446;2022-09-16T08:52:50;24.10;42.20
28905;DHT22;60848;53.884;11.446;2022-09-16T08:55:29;24.20;42.40
28905;DHT22;60848;53.884;11.446;2022-09-16T08:58:06;24.00;42.50
28905;DHT22;60848;53.884;11.446;2022-09-16T09:00:37;24.10;43.00
28905;DHT22;60848;53.884;11.446;2022-09-16T09:03:15;24.00;42.30
28905;DHT22;60848;53.884;11.446;2022-09-16T09:05:50;24.20;41.30
28905;DHT22;60848;53.884;11.446;2022-09-16T09:08:31;24.20;40.80
28905;DHT22;60848;53.884;11.446;2022-09-16T09:11:09;24.30;41.00
28905;DHT22;60848;53.884;11.446;2022-09-16T09:13:49;24.40;40.80
28905;DHT22;60848;53.884;11.446;2022-09-16T09:16:27;24.30;40.70
28905;DHT22;60848;53.884;11.446;2022-09-16T09:19:09;23.90;41.00
28905;DHT22;60848;53.884;11.446;2022-09-16T09:21:43;23.80;41.80
28905;DHT22;60848;53.884;11.446;2022-09-16T09:24:30;23.60;41.90
28905;DHT22;60848;53.884;11.446;2022-09-16T09:27:10;23.40;42.20
28905;DHT22;60848;53.884;11.446;2022-09-16T09:29:52;23.10;42.20
28905;DHT22;60848;53.884;11.446;2022-09-16T09:32:28;22.90;42.80
28905;DHT22;60848;53.884;11.446;2022-09-16T09:35:21;23.00;43.00
28905;DHT22;60848;53.884;11.446;2022-09-16T09:38:22;22.90;43.00
28905;DHT22;60848;53.884;11.446;2022-09-16T09:40:57;22.70;43.40
28905;DHT22;60848;53.884;11.446;2022-09-16T09:43:33;22.40;43.90
28905;DHT22;60848;53.884;11.446;2022-09-16T09:46:11;22.30;44.80
28905;DHT22;60848;53.884;11.446;2022-09-16T09:48:46;22.20;44.30
28905;DHT22;60848;53.884;11.446;2022-09-16T09:51:19;22.20;44.60
28905;DHT22;60848;53.884;11.446;2022-09-16T09:54:00;22.50;44.80
28905;DHT22;60848;53.884;11.446;2022-09-16T09:56:32;22.70;43.50
28905;DHT22;60848;53.884;11.446;2022-09-16T09:59:11;23.50;40.80
28905;DHT22;60848;53.884;11.446;2022-09-16T10:01:42;24.00;40.40
28905;DHT22;60848;53.884;11.446;2022-09-16T10:04:12;24.40;39.50
28905;DHT22;60848;53.884;11.446;2022-09-16T10:06:41;24.50;39.20
28905;DHT22;60848;53.884;11.446;2022-09-16T10:09:13;24.50;38.90
28905;DHT22;60848;53.884;11.446;2022-09-16T10:11:47;24.40;38.30
28905;DHT22;60848;53.884;11.446;2022-09-16T10:14:25;24.30;38.70
28905;DHT22;60848;53.884;11.446;2022-09-16T10:16:59;24.20;39.20
28905;DHT22;60848;53.884;11.446;2022-09-16T10:19:31;24.00;39.50
28905;DHT22;60848;53.884;11.446;2022-09-16T10:22:09;23.90;39.50
28905;DHT22;60848;53.884;11.446;2022-09-16T10:24:38;23.80;40.00
28905;DHT22;60848;53.884;11.446;2022-09-16T10:27:17;23.60;40.20
28905;DHT22;60848;53.884;11.446;2022-09-16T10:29:47;23.50;40.60
28905;DHT22;60848;53.884;11.446;2022-09-16T10:32:31;23.50;41.30
28905;DHT22;60848;53.884;11.446;2022-09-16T10:35:04;23.40;41.50
28905;DHT22;60848;53.884;11.446;2022-09-16T10:37:35;23.40;41.70
28905;DHT22;60848;53.884;11.446;2022-09-16T10:40:13;23.60;41.80
28905;DHT22;60848;53.884;11.446;2022-09-16T10:42:45;23.60;41.20
28905;DHT22;60848;53.884;11.446;2022-09-16T10:45:15;23.40;41.40
28905;DHT22;60848;53.884;11.446;2022-09-16T10:47:46;23.10;41.80
28905;DHT22;60848;53.884;11.446;2022-09-16T10:50:16;23.00;42.40
28905;DHT22;60848;53.884;11.446;2022-09-16T10:52:45;22.90;42.70
28905;DHT22;60848;53.884;11.446;2022-09-16T10:55:21;22.80;42.90
28905;DHT22;60848;53.884;11.446;2022-09-16T10:57:50;22.60;43.10
28905;DHT22;60848;53.884;11.446;2022-09-16T11:00:21;22.50;43.50
28905;DHT22;60848;53.884;11.446;2022-09-16T11:02:54;22.40;43.60
28905;DHT22;60848;53.884;11.446;2022-09-16T11:05:29;22.40;44.00
28905;DHT22;60848;53.884;11.446;2022-09-16T11:08:03;22.30;44.50
28905;DHT22;60848;53.884;11.446;2022-09-16T11:10:36;22.30;45.30
28905;DHT22;60848;53.884;11.446;2022-09-16T11:13:10;22.20;45.20
28905;DHT22;60848;53.884;11.446;2022-09-16T11:15:59;22.30;45.20
28905;DHT22;60848;53.884;11.446;2022-09-16T11:18:31;22.20;44.00
28905;DHT22;60848;53.884;11.446;2022-09-16T11:21:14;22.60;43.60
28905;DHT22;60848;53.884;11.446;2022-09-16T11:23:54;22.70;43.10
28905;DHT22;60848;53.884;11.446;2022-09-16T11:26:29;22.80;42.70
28905;DHT22;60848;53.884;11.446;2022-09-16T11:31:56;23.50;41.60
28905;DHT22;60848;53.884;11.446;2022-09-16T11:34:37;23.80;41.40
28905;DHT22;60848;53.884;11.446;2022-09-16T11:37:12;23.80;41.40
28905;DHT22;60848;53.884;11.446;2022-09-16T11:40:11;23.70;41.90
28905;DHT22;60848;53.884;11.446;2022-09-16T11:42:47;22.80;44.70
28905;DHT22;60848;53.884;11.446;2022-09-16T11:45:28;22.60;45.80
28905;DHT22;60848;53.884;11.446;2022-09-16T11:48:21;22.60;45.80
28905;DHT22;60848;53.884;11.446;2022-09-16T11:50:57;22.70;45.90
28905;DHT22;60848;53.884;11.446;2022-09-16T11:53:50;22.70;44.80
28905;DHT22;60848;53.884;11.446;2022-09-16T11:56:32;22.40;45.20
28905;DHT22;60848;53.884;11.446;2022-09-16T11:59:08;22.20;45.10
28905;DHT22;60848;53.884;11.446;2022-09-16T12:01:42;22.20;45.90
28905;DHT22;60848;53.884;11.446;2022-09-16T12:04:22;22.20;45.50
28905;DHT22;60848;53.884;11.446;2022-09-16T12:06:57;22.30;45.20
28905;DHT22;60848;53.884;11.446;2022-09-16T12:09:35;22.30;45.10
28905;DHT22;60848;53.884;11.446;2022-09-16T12:12:13;22.20;44.90
28905;DHT22;60848;53.884;11.446;2022-09-16T12:14:47;22.10;44.70
28905;DHT22;60848;53.884;11.446;2022-09-16T12:17:21;22.00;45.40
28905;DHT22;60848;53.884;11.446;2022-09-16T12:20:04;21.80;45.80
28905;DHT22;60848;53.884;11.446;2022-09-16T12:22:40;21.70;47.00
28905;DHT22;60848;53.884;11.446;2022-09-16T12:25:13;21.90;47.00
28905;DHT22;60848;53.884;11.446;2022-09-16T12:27:50;22.20;46.40
28905;DHT22;60848;53.884;11.446;2022-09-16T12:30:22;22.40;45.00
28905;DHT22;60848;53.884;11.446;2022-09-16T12:32:58;22.60;44.40
28905;DHT22;60848;53.884;11.446;2022-09-16T12:35:32;22.60;42.90
28905;DHT22;60848;53.884;11.446;2022-09-16T12:38:05;22.60;42.60
28905;DHT22;60848;53.884;11.446;2022-09-16T12:40:48;22.30;43.30
28905;DHT22;60848;53.884;11.446;2022-09-16T12:49:38;22.20;44.30
28905;DHT22;60848;53.884;11.446;2022-09-16T12:52:32;22.30;44.20
28905;DHT22;60848;53.884;11.446;2022-09-16T12:55:28;22.40;44.40
28905;DHT22;60848;53.884;11.446;2022-09-16T12:58:13;22.40;44.60
28905;DHT22;60848;53.884;11.446;2022-09-16T13:00:54;22.50;44.10
28905;DHT22;60848;53.884;11.446;2022-09-16T13:03:27;22.70;44.30
28905;DHT22;60848;53.884;11.446;2022-09-16T13:06:02;22.90;43.60
28905;DHT22;60848;53.884;11.446;2022-09-16T13:08:33;22.80;43.30
28905;DHT22;60848;53.884;11.446;2022-09-16T13:11:04;22.60;43.30
28905;DHT22;60848;53.884;11.446;2022-09-16T13:13:55;22.40;44.50
28905;DHT22;60848;53.884;11.446;2022-09-16T13:16:30;22.40;44.50
28905;DHT22;60848;53.884;11.446;2022-09-16T13:19:27;22.30;44.40
28905;DHT22;60848;53.884;11.446;2022-09-16T13:22:00;22.20;45.00
28905;DHT22;60848;53.884;11.446;2022-09-16T13:24:36;22.20;45.20
28905;DHT22;60848;53.884;11.446;2022-09-16T13:27:27;22.10;44.40
28905;DHT22;60848;53.884;11.446;2022-09-16T13:30:13;21.90;44.40
28905;DHT22;60848;53.884;11.446;2022-09-16T13:32:56;21.80;45.00
28905;DHT22;60848;53.884;11.446;2022-09-16T13:35:40;22.00;45.50
28905;DHT22;60848;53.884;11.446;2022-09-16T13:38:33;22.00;45.20
28905;DHT22;60848;53.884;11.446;2022-09-16T13:41:08;22.10;45.60
28905;DHT22;60848;53.884;11.446;2022-09-16T13:43:47;22.20;46.10
28905;DHT22;60848;53.884;11.446;2022-09-16T13:46:26;22.70;43.90
28905;DHT22;60848;53.884;11.446;2022-09-16T13:48:57;23.10;43.40
28905;DHT22;60848;53.884;11.446;2022-09-16T13:51:25;23.10;43.70
28905;DHT22;60848;53.884;11.446;2022-09-16T13:53:58;23.00;43.00
28905;DHT22;60848;53.884;11.446;2022-09-16T13:56:45;23.00;42.70
28905;DHT22;60848;53.884;11.446;2022-09-16T13:59:19;22.90;42.90
28905;DHT22;60848;53.884;11.446;2022-09-16T14:01:54;22.70;42.90
28905;DHT22;60848;53.884;11.446;2022-09-16T14:04:33;22.70;43.40
28905;DHT22;60848;53.884;11.446;2022-09-16T14:07:11;22.50;43.90
28905;DHT22;60848;53.884;11.446;2022-09-16T14:09:48;22.40;44.90
28905;DHT22;60848;53.884;11.446;2022-09-16T14:12:26;22.40;45.90
28905;DHT22;60848;53.884;11.446;2022-09-16T14:14:57;22.10;46.10
28905;DHT22;60848;53.884;11.446;2022-09-16T14:17:40;21.40;48.50
28905;DHT22;60848;53.884;11.446;2022-09-16T14:20:15;21.20;48.50
28905;DHT22;60848;53.884;11.446;2022-09-16T14:22:45;21.80;46.20
28905;DHT22;60848;53.884;11.446;2022-09-16T14:25:26;22.00;44.70
28905;DHT22;60848;53.884;11.446;2022-09-16T14:28:14;22.10;44.50
28905;DHT22;60848;53.884;11.446;2022-09-16T14:30:44;22.10;44.50
28905;DHT22;60848;53.884;11.446;2022-09-16T14:33:12;22.10;44.50
28905;DHT22;60848;53.884;11.446;2022-09-16T14:35:42;22.10;44.50
28905;DHT22;60848;53.884;11.446;2022-09-16T14:38:11;22.10;44.40
28905;DHT22;60848;53.884;11.446;2022-09-16T14:41:00;22.10;44.20
28905;DHT22;60848;53.884;11.446;2022-09-16T14:43:30;21.90;44.50
28905;DHT22;60848;53.884;11.446;2022-09-16T14:45:58;21.70;45.10
28905;DHT22;60848;53.884;11.446;2022-09-16T14:48:29;21.70;45.60
28905;DHT22;60848;53.884;11.446;2022-09-16T14:50:57;21.70;46.00
28905;DHT22;60848;53.884;11.446;2022-09-16T14:53:26;21.70;46.30
28905;DHT22;60848;53.884;11.446;2022-09-16T14:56:01;21.80;46.70
28905;DHT22;60848;53.884;11.446;2022-09-16T14:58:31;21.60;46.80
28905;DHT22;60848;53.884;11.446;2022-09-16T15:01:02;21.40;47.30
28905;DHT22;60848;53.884;11.446;2022-09-16T15:03:41;21.40;47.70
28905;DHT22;60848;53.884;11.446;2022-09-16T15:06:10;21.30;48.00
28905;DHT22;60848;53.884;11.446;2022-09-16T15:08:42;21.20;47.80
28905;DHT22;60848;53.884;11.446;2022-09-16T15:11:14;21.10;47.40
28905;DHT22;60848;53.884;11.446;2022-09-16T15:14:05;20.90;47.00
28905;DHT22;60848;53.884;11.446;2022-09-16T15:16:37;20.90;47.00
28905;DHT22;60848;53.884;11.446;2022-09-16T15:19:12;21.00;47.00
28905;DHT22;60848;53.884;11.446;2022-09-16T15:21:43;21.20;46.70
28905;DHT22;60848;53.884;11.446;2022-09-16T15:24:14;21.00;45.60
28905;DHT22;60848;53.884;11.446;2022-09-16T15:26:45;20.90;45.60
28905;DHT22;60848;53.884;11.446;2022-09-16T15:29:28;20.90;45.90
28905;DHT22;60848;53.884;11.446;2022-09-16T15:32:17;20.80;46.30
28905;DHT22;60848;53.884;11.446;2022-09-16T15:34:46;20.80;46.00
28905;DHT22;60848;53.884;11.446;2022-09-16T15:37:30;20.90;45.90
28905;DHT22;60848;53.884;11.446;2022-09-16T15:40:10;20.90;46.00
28905;DHT22;60848;53.884;11.446;2022-09-16T15:42:47;20.70;45.70
28905;DHT22;60848;53.884;11.446;2022-09-16T15:45:18;20.60;46.10
28905;DHT22;60848;53.884;11.446;2022-09-16T15:47:54;20.50;46.90
28905;DHT22;60848;53.884;11.446;2022-09-16T15:50:27;20.50;46.60
28905;DHT22;60848;53.884;11.446;2022-09-16T15:52:58;20.40;46.80
28905;DHT22;60848;53.884;11.446;2022-09-16T15:55:34;20.30;47.10
28905;DHT22;60848;53.884;11.446;2022-09-16T15:58:07;20.10;47.70
28905;DHT22;60848;53.884;11.446;2022-09-16T16:00:57;20.00;48.30
28905;DHT22;60848;53.884;11.446;2022-09-16T16:03:27;19.70;49.10
28905;DHT22;60848;53.884;11.446;2022-09-16T16:05:57;19.40;50.60
28905;DHT22;60848;53.884;11.446;2022-09-16T16:08:41;19.40;51.40
28905;DHT22;60848;53.884;11.446;2022-09-16T16:11:10;19.30;53.00